Advance, OR

2:44 PM PST on January 30, 2015 (GMT -0800)
Sunburst II | Change Station
CLOSE
Current Station
Personal Weather Station
Location: West Linn, OR
Elevation: 689 ft
Nearby Weather Stations

Elev 689 ft 45.38 °N, 122.65 °W | Updated 17 seconds ago

Clear
Clear
49.1 °F
Feels Like 45 °F
N
9.6
Wind Variable Wind from NE
Gusts 9.6 mph

Today
High -- | Low -- °F
--% Chance of Precip.
Yesterday
High -- | Low -- °F
Precip. -- in
7:33 AM 5:14 PM
Waxing Gibbous, 85% visible
Pressure 30.22 in
Visibility 10.0 miles
Clouds Clear
Windchill 45 °F
Dew Point 36 °F
Humidity 60%
Rainfall 0.00 in
Snow Depth Not available.
UV 2 out of 12
Pollen 3.20 out of 12
Air Quality Not available.
Flu Activity Not available.
METAR KUAO 302153Z AUTO 36007KT 10SM CLR 12/03 A3022 RMK AO2 SLP232 T01220028

More Conditions Fewer Conditions

Pressure 30.22 in
Visibility 10.0 miles
Clouds Clear
Windchill 45 °F
Dew Point 36 °F
Humidity 60%
Rainfall 0.00 in
Snow Depth Not available.
UV 2 out of 12
Pollen 3.20 out of 12
Air Quality Not available.
Flu Activity Not available.
METAR KUAO 302153Z AUTO 36007KT 10SM CLR 12/03 A3022 RMK AO2 SLP232 T01220028

More Conditions Fewer Conditions

10-Day Weather Forecast

Almanac

Astronomy

Jan. 30, 2015 Rise Set
Actual Time
Civil Twilight
Nautical Twilight
Astronomical Twilight
Moon
Length of Visible Light
Length of Day
Tomorrow will be .
, % of the Moon is Illuminated

Today's Extremes

State Highs State Lows

Community

WunderPhotos

Upload Photos

1,791,905 photos uploaded!

WunderBlogs® & News

Nearby

Air Quality

  Air Quality AQ Index Pollutant
Not available.

Snow Depth

Station Depth Elevation

Earthquake Activity

City Distance Mag. Time & Date
Minimum magnitude displayed is 2.5.

Coastal Water Temperatures

Place Temperature

Nearby Weather Stations